Time;durP1;ratioP1;P1;durP2;ratioP2;P2;SDS_P1;SDS_P2;PMS_P1;PMS_P2;Temp;Humidity;BMP_temperature;BMP_pressure;BME280_temperature;BME280_humidity;BME280_pressure;Samples;Min_cycle;Max_cycle;Signal;HPM_P1;HPM_P2
2024/04/01 00:00:31;;;;;;;0.10;0.10;;;;;;;13.70;59.55;98633.56;7362728;19;20030;-63
2024/04/01 00:02:57;;;;;;;0.10;0.10;;;;;;;13.76;59.02;98647.09;7362704;19;20460;-63
2024/04/01 00:05:22;;;;;;;0.10;0.10;;;;;;;13.70;59.48;98637.03;7363304;19;20013;-63
2024/04/01 00:07:50;;;;;;;0.10;0.10;;;;;;;13.67;59.97;98629.34;7362536;19;20003;-64
2024/04/01 00:10:15;;;;;;;;;;;;;;;13.75;58.14;98640.19;7359651;19;20029;-63
2024/04/01 00:12:40;;;;;;;0.10;0.10;;;;;;;13.68;59.35;98631.03;7359539;19;19919;-63
2024/04/01 00:15:06;;;;;;;0.10;0.10;;;;;;;13.60;59.35;98615.00;7353063;19;20356;-63
2024/04/01 00:17:31;;;;;;;0.10;0.10;;;;;;;13.52;59.26;98604.19;7359009;19;20461;-64
2024/04/01 00:19:57;;;;;;;0.10;0.10;;;;;;;13.65;59.34;98631.25;7359662;19;20018;-63
2024/04/01 00:22:22;;;;;;;0.10;0.10;;;;;;;13.45;59.69;98592.44;7358089;19;20048;-63
2024/04/01 00:24:48;;;;;;;0.10;0.10;;;;;;;13.62;59.24;98625.38;7362822;19;20489;-64
2024/04/01 00:27:13;;;;;;;0.10;0.10;;;;;;;13.61;59.54;98626.31;7363019;19;20010;-63
2024/04/01 00:29:39;;;;;;;0.10;0.10;;;;;;;13.43;59.86;98604.81;7360989;19;20010;-63
2024/04/01 00:32:05;;;;;;;0.10;0.10;;;;;;;13.58;59.09;98622.13;7363334;19;20010;-64
2024/04/01 00:34:30;;;;;;;0.10;0.10;;;;;;;13.56;59.42;98618.78;7365893;19;20032;-64
2024/04/01 00:36:55;;;;;;;0.10;0.10;;;;;;;13.53;59.69;98611.09;7359275;19;20022;-63
2024/04/01 00:39:21;;;;;;;0.10;0.10;;;;;;;13.53;58.84;98611.09;7358282;19;20006;-63
2024/04/01 00:41:46;;;;;;;0.10;0.10;;;;;;;13.51;59.55;98605.13;7360638;19;20015;-63
2024/04/01 00:44:12;;;;;;;0.10;0.10;;;;;;;13.50;59.56;98611.31;7361369;19;20068;-65
2024/04/01 00:46:38;;;;;;;0.10;0.10;;;;;;;13.46;59.44;98604.59;7360852;19;20006;-63
2024/04/01 00:49:04;;;;;;;0.10;0.10;;;;;;;13.46;59.79;98609.84;7362067;19;20011;-63
2024/04/01 00:51:29;;;;;;;0.10;0.10;;;;;;;13.43;59.66;98607.44;7359049;19;20003;-63
2024/04/01 00:53:55;;;;;;;0.10;0.10;;;;;;;13.40;60.31;98605.88;7363082;19;20041;-64
2024/04/01 00:56:22;;;;;;;0.10;0.10;;;;;;;13.39;60.11;98603.34;7358906;19;20801;-64
2024/04/01 00:58:53;;;;;;;0.10;0.10;;;;;;;12.99;60.02;98532.63;7361837;19;20509;-63
2024/04/01 01:01:20;;;;;;;0.10;0.10;;;;;;;13.34;60.60;98600.22;7358037;19;20010;-63
2024/04/01 01:03:45;;;;;;;0.10;0.10;;;;;;;13.28;59.85;98590.97;7359569;19;20002;-63
2024/04/01 01:06:15;;;;;;;0.10;0.10;;;;;;;13.34;60.08;98600.22;7361345;19;20019;-64
2024/04/01 01:08:43;;;;;;;0.08;0.08;;;;;;;13.31;60.48;98595.16;7364362;19;19998;-63
2024/04/01 01:11:09;;;;;;;0.10;0.10;;;;;;;13.28;60.13;98592.72;7359884;19;20018;-63
2024/04/01 01:13:34;;;;;;;0.10;0.10;;;;;;;13.26;60.60;98589.38;7358767;19;20025;-63
2024/04/01 01:16:00;;;;;;;0.10;0.10;;;;;;;13.24;60.29;98587.72;7359269;19;20470;-63
2024/04/01 01:18:26;;;;;;;0.10;0.10;;;;;;;13.20;61.01;98583.59;7359869;19;20037;-64
2024/04/01 01:20:51;;;;;;;0.10;0.10;;;;;;;13.21;61.13;98579.19;7361470;19;20006;-63
2024/04/01 01:23:17;;;;;;;0.10;0.10;;;;;;;13.20;60.81;98583.59;7355127;19;20000;-63
2024/04/01 01:25:42;;;;;;;0.10;0.10;;;;;;;13.05;60.76;98558.41;7363164;19;19998;-64
2024/04/01 01:28:08;;;;;;;0.10;0.10;;;;;;;13.14;60.50;98578.75;7358114;19;19994;-63
2024/04/01 01:30:37;;;;;;;0.10;0.10;;;;;;;13.04;60.88;98561.13;7361427;19;20357;-63
2024/04/01 01:33:05;;;;;;;0.10;0.10;;;;;;;13.14;61.07;98578.75;7361982;19;20019;-63
2024/04/01 01:35:34;;;;;;;0.10;0.10;;;;;;;13.06;60.93;98570.56;7360206;19;20102;-63
2024/04/01 01:38:00;;;;;;;0.00;0.00;;;;;;;13.11;61.41;98581.56;7360165;19;20611;-63
2024/04/01 01:40:25;;;;;;;0.10;0.10;;;;;;;13.06;61.58;98570.56;7360937;19;20010;-63
2024/04/01 01:42:50;;;;;;;0.10;0.10;;;;;;;13.09;60.95;98577.41;7359633;19;20006;-63
2024/04/01 01:45:16;;;;;;;0.10;0.10;;;;;;;13.08;60.98;98579.19;7352296;19;20738;-64
2024/04/01 01:47:41;;;;;;;0.10;0.10;;;;;;;13.00;61.16;98565.75;7362245;19;20002;-63
2024/04/01 01:50:07;;;;;;;0.10;0.10;;;;;;;13.04;61.59;98572.47;7357475;19;20338;-64
2024/04/01 01:52:34;;;;;;;0.10;0.10;;;;;;;13.02;61.50;98569.09;7361645;19;20070;-63
2024/04/01 01:55:00;;;;;;;0.10;0.10;;;;;;;13.01;61.86;98570.03;7360521;19;20041;-64
2024/04/01 01:57:27;;;;;;;0.10;0.10;;;;;;;12.94;61.64;98558.28;7354819;19;20595;-64
2024/04/01 01:59:52;;;;;;;0.10;0.10;;;;;;;12.98;61.53;98565.84;7354036;19;20561;-63
2024/04/01 02:02:19;;;;;;;0.10;0.10;;;;;;;12.96;61.19;98564.25;7364273;19;19994;-64
2024/04/01 02:04:44;;;;;;;0.10;0.10;;;;;;;12.94;61.33;98568.78;7362391;19;21506;-64
2024/04/01 02:07:10;;;;;;;0.10;0.10;;;;;;;12.86;61.54;98552.72;7357866;19;20030;-63
2024/04/01 02:09:35;;;;;;;0.10;0.10;;;;;;;12.91;61.64;98561.09;7361683;19;20018;-63
2024/04/01 02:12:07;;;;;;;0.03;0.03;;;;;;;12.93;60.88;98562.69;7365885;19;19999;-63
2024/04/01 02:14:36;;;;;;;0.10;0.10;;;;;;;12.90;61.17;98554.19;7359464;19;20005;-63
2024/04/01 02:17:01;;;;;;;0.00;0.00;;;;;;;12.90;61.16;98551.56;7363282;19;20007;-64
2024/04/01 02:19:28;;;;;;;0.10;0.10;;;;;;;12.89;60.96;98552.53;7360236;19;20058;-63
2024/04/01 02:21:53;;;;;;;0.10;0.10;;;;;;;12.86;61.41;98547.47;7360759;19;20066;-63
2024/04/01 02:24:18;;;;;;;0.10;0.10;;;;;;;12.85;61.28;98551.88;7356781;19;20015;-63
2024/04/01 02:26:44;;;;;;;0.10;0.10;;;;;;;12.84;61.40;98554.59;7361063;19;20011;-64
2024/04/01 02:29:10;;;;;;;0.00;0.00;;;;;;;12.81;61.51;98547.78;7356724;19;20829;-62
2024/04/01 02:31:36;;;;;;;0.10;0.10;;;;;;;12.80;61.73;98543.47;7363376;19;20021;-63
2024/04/01 02:34:02;;;;;;;0.10;0.10;;;;;;;12.80;61.47;98550.50;7361697;19;20010;-63
2024/04/01 02:36:28;;;;;;;0.10;0.10;;;;;;;12.78;61.68;98545.38;7362068;19;20024;-63
2024/04/01 02:38:53;;;;;;;0.10;0.10;;;;;;;12.77;62.09;98541.06;7359650;19;20007;-63
2024/04/01 02:41:18;;;;;;;0.10;0.10;;;;;;;12.72;61.64;98530.91;7362045;19;20032;-63
2024/04/01 02:43:44;;;;;;;0.10;0.10;;;;;;;12.75;62.09;98534.25;7362707;19;19995;-64
2024/04/01 02:46:09;;;;;;;0.00;0.00;;;;;;;12.73;61.53;98537.81;7359778;19;19994;-63
2024/04/01 02:48:35;;;;;;;0.10;0.10;;;;;;;12.72;62.38;98538.75;7356478;19;20332;-63
2024/04/01 02:51:01;;;;;;;0.10;0.10;;;;;;;12.70;62.13;98543.25;7355174;19;20011;-63
2024/04/01 02:53:27;;;;;;;0.10;0.10;;;;;;;12.67;62.10;98545.22;7366632;19;20220;-64
2024/04/01 02:55:52;;;;;;;0.10;0.10;;;;;;;12.66;62.33;98541.75;7368627;19;20648;-63
2024/04/01 02:58:18;;;;;;;0.10;0.10;;;;;;;12.61;62.10;98538.59;7361869;19;20006;-63
2024/04/01 03:00:45;;;;;;;0.00;0.00;;;;;;;12.56;61.88;98535.44;7370937;19;20003;-64
2024/04/01 03:03:11;;;;;;;;;;;;;;;12.66;60.13;98549.63;7367200;19;20334;-63
2024/04/01 03:05:39;;;;;;;0.10;0.10;;;;;;;12.62;61.61;98560.38;7362090;19;19918;-64
2024/04/01 03:08:06;;;;;;;0.10;0.10;;;;;;;12.60;62.02;98552.66;7366726;19;19999;-63
2024/04/01 03:10:36;;;;;;;0.10;0.10;;;;;;;12.50;62.08;98540.25;7363953;19;20023;-63
2024/04/01 03:13:07;;;;;;;0.10;0.10;;;;;;;12.54;61.51;98547.81;7370850;19;20543;-64
2024/04/01 03:15:34;;;;;;;0.10;0.10;;;;;;;12.40;62.18;98535.63;7344374;19;20759;-63
2024/04/01 03:18:00;;;;;;;0.10;0.10;;;;;;;12.40;62.17;98534.78;7367189;19;20015;-63
2024/04/01 03:20:26;;;;;;;0.10;0.10;;;;;;;12.36;61.99;98534.13;7368797;19;20001;-63
2024/04/01 03:22:52;;;;;;;0.10;0.10;;;;;;;12.48;61.93;98563.09;7368461;19;20007;-64
2024/04/01 03:25:18;;;;;;;0.10;0.10;;;;;;;12.48;62.49;98561.31;7367002;19;20744;-63
2024/04/01 03:27:43;;;;;;;0.10;0.10;;;;;;;12.51;62.51;98568.94;7361227;19;20627;-63
2024/04/01 03:30:09;;;;;;;0.03;0.03;;;;;;;12.51;62.41;98570.72;7369177;19;20030;-64
2024/04/01 03:32:36;;;;;;;0.10;0.10;;;;;;;12.51;62.78;98573.34;7364502;19;20127;-63
2024/04/01 03:35:02;;;;;;;0.10;0.10;;;;;;;12.33;62.46;98544.81;7369969;19;20498;-63
2024/04/01 03:37:27;;;;;;;0.10;0.10;;;;;;;12.45;62.57;98564.13;7368641;19;20003;-64
2024/04/01 03:39:52;;;;;;;0.05;0.05;;;;;;;12.50;62.89;98564.66;7366730;19;20363;-63
2024/04/01 03:42:18;;;;;;;0.10;0.10;;;;;;;12.46;62.46;98561.38;7367276;19;20002;-64
2024/04/01 03:44:43;;;;;;;0.10;0.10;;;;;;;12.50;62.39;98567.28;7367492;19;20109;-63
2024/04/01 03:47:10;;;;;;;0.10;0.10;;;;;;;12.50;61.94;98580.38;7365868;19;20013;-63
2024/04/01 03:49:36;;;;;;;0.03;0.03;;;;;;;12.49;62.59;98576.06;7364368;19;20002;-64
2024/04/01 03:52:01;;;;;;;0.10;0.10;;;;;;;12.46;62.24;98576.25;7365503;19;20002;-63
2024/04/01 03:54:27;;;;;;;0.03;0.03;;;;;;;12.47;62.49;98580.56;7365718;19;19995;-63
2024/04/01 03:56:52;;;;;;;0.10;0.10;;;;;;;12.46;62.61;98577.09;7367596;19;20006;-63
2024/04/01 03:59:20;;;;;;;0.10;0.10;;;;;;;12.45;62.77;98575.41;7366150;19;20014;-63
2024/04/01 04:01:45;;;;;;;0.10;0.10;;;;;;;12.45;62.81;98579.81;7367456;19;20001;-63
2024/04/01 04:04:11;;;;;;;0.10;0.10;;;;;;;12.46;62.47;98581.50;7362325;19;19998;-63
2024/04/01 04:06:38;;;;;;;0.10;0.10;;;;;;;12.46;62.44;98571.03;7367566;19;20002;-63
2024/04/01 04:09:03;;;;;;;0.10;0.10;;;;;;;12.44;62.97;98581.59;7367126;19;20030;-63
2024/04/01 04:11:28;;;;;;;0.10;0.10;;;;;;;12.43;63.26;98574.69;7364298;19;19999;-64
2024/04/01 04:13:54;;;;;;;0.13;0.13;;;;;;;12.44;62.81;98568.50;7366070;19;20034;-63
2024/04/01 04:16:19;;;;;;;0.10;0.10;;;;;;;12.40;62.97;98561.78;7366932;19;20438;-63
2024/04/01 04:18:45;;;;;;;0.10;0.10;;;;;;;12.36;62.97;98562.09;7367533;19;20684;-63
2024/04/01 04:21:10;;;;;;;0.10;0.10;;;;;;;12.44;63.06;98576.38;7364685;19;20023;-64
2024/04/01 04:23:36;;;;;;;0.10;0.10;;;;;;;12.38;63.07;98570.69;7365086;19;20007;-63
2024/04/01 04:26:02;;;;;;;0.10;0.10;;;;;;;12.03;63.30;98521.44;7364949;19;20002;-63
2024/04/01 04:28:27;;;;;;;0.00;0.00;;;;;;;12.44;63.35;98575.53;7368937;19;19995;-64
2024/04/01 04:30:52;;;;;;;0.10;0.10;;;;;;;12.30;62.99;98565.09;7364910;19;20031;-63
2024/04/01 04:33:19;;;;;;;0.10;0.10;;;;;;;12.34;63.07;98566.59;7367979;19;20022;-63
2024/04/01 04:35:46;;;;;;;0.10;0.10;;;;;;;12.34;63.34;98562.19;7361703;19;20007;-61
2024/04/01 04:38:12;;;;;;;0.03;0.03;;;;;;;12.41;63.06;98575.72;7364876;19;20006;-63
2024/04/01 04:40:38;;;;;;;0.10;0.10;;;;;;;12.41;63.43;98573.94;7367258;19;20860;-63
2024/04/01 04:43:04;;;;;;;0.10;0.10;;;;;;;12.40;63.44;98577.50;7363923;19;20573;-63
2024/04/01 04:45:31;;;;;;;0.10;0.10;;;;;;;12.40;63.07;98574.03;7364959;19;20010;-63
2024/04/01 04:47:56;;;;;;;0.10;0.10;;;;;;;12.40;63.26;98576.66;7365076;19;20002;-63
2024/04/01 04:50:21;;;;;;;0.10;0.10;;;;;;;12.41;62.99;98567.84;7365660;19;19998;-62
2024/04/01 04:52:48;;;;;;;0.10;0.10;;;;;;;12.39;63.41;98573.19;7358822;19;20002;-63
2024/04/01 04:55:14;;;;;;;0.00;0.00;;;;;;;12.39;63.16;98567.13;7366136;19;19999;-63
2024/04/01 04:57:39;;;;;;;0.10;0.10;;;;;;;12.11;63.73;98521.78;7364368;19;20554;-63
2024/04/01 05:00:26;;;;;;;0.10;0.10;;;;;;;12.39;63.82;98569.75;7365745;19;20001;-62
2024/04/01 05:02:51;;;;;;;0.10;0.10;;;;;;;12.37;63.48;98571.63;7367620;19;20544;-63
2024/04/01 05:05:18;;;;;;;0.10;0.10;;;;;;;12.39;64.12;98572.38;7361053;19;20001;-64
2024/04/01 05:07:48;;;;;;;0.10;0.10;;;;;;;12.41;63.64;98573.09;7367466;19;20088;-63
2024/04/01 05:10:14;;;;;;;0.20;0.20;;;;;;;12.38;64.21;98571.53;7364806;19;20097;-63
2024/04/01 05:12:41;;;;;;;0.10;0.10;;;;;;;12.39;64.23;98569.75;7365600;19;20132;-62
2024/04/01 05:15:06;;;;;;;0.10;0.10;;;;;;;12.36;64.46;98564.69;7362486;19;20462;-63
2024/04/01 05:17:32;;;;;;;0.10;0.10;;;;;;;12.38;64.23;98570.69;7367906;19;19998;-63
2024/04/01 05:19:58;;;;;;;0.10;0.10;;;;;;;12.39;64.85;98569.75;7359670;19;20010;-63
2024/04/01 05:22:25;;;;;;;0.10;0.10;;;;;;;12.30;64.37;98570.34;7367150;19;20014;-64
2024/04/01 05:24:50;;;;;;;0.10;0.10;;;;;;;12.36;64.63;98576.00;7359359;19;20347;-63
2024/04/01 05:27:16;;;;;;;0.00;0.00;;;;;;;12.38;64.56;98578.53;7364757;19;20370;-63
2024/04/01 05:29:41;;;;;;;0.10;0.10;;;;;;;12.39;64.62;98582.84;7362422;19;20040;-63
2024/04/01 05:32:07;;;;;;;0.10;0.10;;;;;;;12.35;64.16;98583.97;7365879;19;20006;-64
2024/04/01 05:34:37;;;;;;;0.10;0.10;;;;;;;12.40;64.20;98581.91;7361264;19;20014;-64
2024/04/01 05:37:06;;;;;;;0.10;0.10;;;;;;;12.34;64.54;98577.91;7366040;19;20010;-64
2024/04/01 05:39:32;;;;;;;0.10;0.10;;;;;;;12.24;64.30;98565.50;7360353;19;20006;-63
2024/04/01 05:41:57;;;;;;;0.10;0.10;;;;;;;12.37;64.76;98593.41;7365746;19;20818;-64
2024/04/01 05:44:23;;;;;;;0.10;0.10;;;;;;;12.36;64.38;98585.63;7362896;19;20039;-64
2024/04/01 05:46:48;;;;;;;0.10;0.10;;;;;;;12.36;64.62;98590.88;7362229;19;20018;-63
2024/04/01 05:49:14;;;;;;;0.10;0.10;;;;;;;12.35;64.48;98587.41;7362479;19;20023;-63
2024/04/01 05:51:39;;;;;;;0.08;0.08;;;;;;;12.34;64.98;98587.53;7363923;19;20010;-63
2024/04/01 05:54:04;;;;;;;0.10;0.10;;;;;;;12.34;64.54;98598.81;7364462;19;19998;-63
2024/04/01 05:56:30;;;;;;;0.10;0.10;;;;;;;12.29;64.64;98584.34;7366399;19;20714;-64
2024/04/01 05:58:55;;;;;;;0.10;0.10;;;;;;;12.34;65.02;98596.22;7357425;19;20010;-64
2024/04/01 06:01:21;;;;;;;0.10;0.10;;;;;;;12.33;64.77;98596.31;7362934;19;20014;-63
2024/04/01 06:03:46;;;;;;;0.10;0.10;;;;;;;12.33;64.91;98596.31;7354572;19;20879;-63
2024/04/01 06:06:11;;;;;;;0.10;0.10;;;;;;;12.33;65.09;98606.78;7361757;19;20328;-63
2024/04/01 06:08:37;;;;;;;0.10;0.10;;;;;;;12.33;64.92;98602.38;7358339;19;20010;-62
2024/04/01 06:11:02;;;;;;;0.10;0.10;;;;;;;12.32;65.04;98605.13;7362579;19;20457;-63
2024/04/01 06:13:28;;;;;;;0.00;0.00;;;;;;;12.16;65.23;98577.28;7361024;19;20010;-64
2024/04/01 06:15:53;;;;;;;0.10;0.10;;;;;;;12.32;65.25;98612.97;7363667;19;20014;-63
2024/04/01 06:18:18;;;;;;;0.20;0.20;;;;;;;12.32;65.23;98610.34;7353444;19;20864;-63
2024/04/01 06:20:44;;;;;;;0.10;0.10;;;;;;;12.16;65.02;98579.03;7359758;19;20014;-63
2024/04/01 06:23:09;;;;;;;0.10;0.10;;;;;;;12.28;65.12;98598.38;7363661;19;19995;-63
2024/04/01 06:25:44;;;;;;;0.10;0.10;;;;;;;12.33;64.98;98604.16;7361126;19;20017;-63
2024/04/01 06:28:10;;;;;;;0.10;0.10;;;;;;;12.33;65.41;98606.78;7370243;19;20730;-63
2024/04/01 06:30:35;;;;;;;0.10;0.10;;;;;;;12.34;65.59;98604.06;7370826;19;20006;-63
2024/04/01 06:33:01;;;;;;;0.10;0.10;;;;;;;12.32;65.53;98602.50;7369068;19;20014;-64
2024/04/01 06:35:27;;;;;;;0.10;0.10;;;;;;;12.32;65.33;98612.97;7364896;19;20465;-61
2024/04/01 06:37:52;;;;;;;0.10;0.10;;;;;;;12.33;65.56;98614.63;7367916;19;20090;-63
2024/04/01 06:40:18;;;;;;;0.10;0.10;;;;;;;12.33;65.28;98606.78;7371550;19;20455;-63
2024/04/01 06:42:43;;;;;;;0.10;0.10;;;;;;;12.33;65.41;98615.47;7367595;19;20731;-63
2024/04/01 06:45:10;;;;;;;0.10;0.10;;;;;;;12.33;65.62;98609.41;7360839;19;20014;-63
2024/04/01 06:47:36;;;;;;;0.10;0.10;;;;;;;12.33;65.53;98612.03;7368119;19;20009;-63
2024/04/01 06:50:01;;;;;;;0.15;0.15;;;;;;;12.31;65.57;98611.25;7368169;19;20006;-63
2024/04/01 06:52:28;;;;;;;0.10;0.10;;;;;;;12.34;65.61;98613.69;7356644;19;20490;-63
2024/04/01 06:54:53;;;;;;;0.10;0.10;;;;;;;12.18;65.54;98588.50;7370953;19;20005;-64
2024/04/01 06:57:18;;;;;;;0.10;0.10;;;;;;;12.34;65.71;98613.69;7369263;19;20010;-63
2024/04/01 06:59:44;;;;;;;0.10;0.10;;;;;;;12.35;65.51;98612.75;7367278;19;20030;-63
2024/04/01 07:02:09;;;;;;;0.10;0.10;;;;;;;12.35;65.03;98615.38;7368923;19;20077;-63
2024/04/01 07:04:35;;;;;;;0.10;0.10;;;;;;;12.34;65.55;98608.47;7370365;19;20010;-63
2024/04/01 07:07:00;;;;;;;0.10;0.10;;;;;;;12.30;64.95;98606.97;7370276;19;20009;-63
2024/04/01 07:09:25;;;;;;;0.17;0.17;;;;;;;12.33;65.38;98609.41;7369177;19;20597;-63
2024/04/01 07:11:51;;;;;;;0.10;0.10;;;;;;;12.34;65.05;98613.69;7363769;19;19995;-64
2024/04/01 07:14:16;;;;;;;0.10;0.10;;;;;;;12.29;65.38;98605.28;7366966;19;20351;-63
2024/04/01 07:16:41;;;;;;;0.10;0.10;;;;;;;12.33;64.92;98614.63;7366011;19;20002;-64
2024/04/01 07:19:07;;;;;;;0.10;0.10;;;;;;;12.31;64.62;98606.88;7369349;19;20003;-63
2024/04/01 07:21:32;;;;;;;0.10;0.10;;;;;;;12.31;65.27;98613.88;7368011;19;19995;-63
2024/04/01 07:23:58;;;;;;;0.10;0.10;;;;;;;12.30;65.40;98612.19;7369612;19;20006;-63
2024/04/01 07:26:23;;;;;;;0.10;0.10;;;;;;;12.30;65.55;98620.06;7363420;19;19999;-63
2024/04/01 07:28:49;;;;;;;0.10;0.10;;;;;;;12.30;65.28;98617.44;7371580;19;20007;-63
2024/04/01 07:31:14;;;;;;;0.10;0.10;;;;;;;12.29;65.49;98621.00;7363019;19;20010;-64
2024/04/01 07:33:39;;;;;;;0.10;0.10;;;;;;;12.29;65.44;98627.06;7370265;19;20038;-63
2024/04/01 07:36:06;;;;;;;0.13;0.13;;;;;;;12.29;65.76;98615.75;7363880;19;20010;-63
2024/04/01 07:38:31;;;;;;;0.10;0.10;;;;;;;12.19;65.68;98611.09;7346718;19;19999;-63
2024/04/01 07:40:56;;;;;;;0.10;0.10;;;;;;;12.32;65.44;98626.06;7367431;19;20025;-63
2024/04/01 07:43:22;;;;;;;0.10;0.10;;;;;;;12.19;65.57;98600.63;7365832;19;20725;-63
2024/04/01 07:45:51;;;;;;;0.10;0.10;;;;;;;12.24;65.96;98604.75;7363012;19;20002;-64
2024/04/01 07:48:17;;;;;;;0.10;0.10;;;;;;;12.31;65.84;98613.88;7369561;19;20070;-63
2024/04/01 07:50:42;;;;;;;0.10;0.10;;;;;;;12.37;65.24;98629.22;7366131;19;20009;-63
2024/04/01 07:53:07;;;;;;;0.10;0.10;;;;;;;12.37;65.48;98629.22;7367696;19;19995;-63
2024/04/01 07:55:33;;;;;;;0.10;0.10;;;;;;;12.39;65.87;98632.56;7363691;19;20440;-64
2024/04/01 07:57:58;;;;;;;0.10;0.10;;;;;;;12.39;65.81;98628.16;7364765;19;19999;-64
2024/04/01 08:00:23;;;;;;;0.10;0.10;;;;;;;12.25;65.39;98606.41;7366401;19;20002;-63
2024/04/01 08:02:49;;;;;;;0.10;0.10;;;;;;;12.41;65.55;98641.16;7369827;19;20018;-63
2024/04/01 08:05:14;;;;;;;0.10;0.10;;;;;;;12.43;65.22;98634.91;7365803;19;20015;-63
2024/04/01 08:07:40;;;;;;;0.20;0.20;;;;;;;12.43;65.16;98634.06;7368443;19;20017;-63
2024/04/01 08:10:05;;;;;;;0.10;0.10;;;;;;;12.29;65.10;98611.38;7366871;19;20363;-63
2024/04/01 08:12:31;;;;;;;0.10;0.10;;;;;;;12.40;65.03;98632.47;7369003;19;20010;-64
2024/04/01 08:14:56;;;;;;;0.10;0.10;;;;;;;12.43;65.27;98634.91;7364456;19;19999;-63
2024/04/01 08:17:22;;;;;;;0.10;0.10;;;;;;;12.45;65.09;98637.41;7363721;19;20006;-63
2024/04/01 08:19:47;;;;;;;0.10;0.10;;;;;;;12.44;64.84;98635.72;7359911;19;20448;-64
2024/04/01 08:22:14;;;;;;;0.10;0.10;;;;;;;12.45;65.08;98642.66;7367806;19;20010;-63
2024/04/01 08:24:40;;;;;;;0.10;0.10;;;;;;;12.45;65.03;98642.66;7366229;19;20828;-64
2024/04/01 08:27:05;;;;;;;0.10;0.10;;;;;;;12.45;65.06;98640.03;7367405;19;20022;-63
2024/04/01 08:29:31;;;;;;;0.10;0.10;;;;;;;12.39;65.14;98633.41;7362205;19;19990;-63
2024/04/01 08:31:56;;;;;;;0.10;0.10;;;;;;;12.46;64.94;98646.94;7368942;19;20422;-64
2024/04/01 08:34:21;;;;;;;0.10;0.10;;;;;;;12.44;65.09;98640.97;7366639;19;20018;-63
2024/04/01 08:36:47;;;;;;;0.10;0.10;;;;;;;12.39;65.10;98632.56;7361988;19;20013;-63
2024/04/01 08:39:12;;;;;;;0.10;0.10;;;;;;;12.36;65.62;98632.75;7363339;19;20593;-63
2024/04/01 08:41:58;;;;;;;0.10;0.10;;;;;;;12.49;65.35;98649.38;7367051;19;20823;-64
2024/04/01 08:44:25;;;;;;;0.10;0.10;;;;;;;12.49;65.59;98646.75;7365099;19;20002;-63
2024/04/01 08:46:52;;;;;;;;;;;;;;;12.56;63.96;98645.41;7360638;19;20014;-63
2024/04/01 08:49:47;;;;;;;0.10;0.10;;;;;;;12.59;65.05;98649.63;7367539;19;19949;-64
2024/04/01 08:52:15;;;;;;;0.10;0.10;;;;;;;12.57;65.02;98652.34;7365448;19;20336;-64
2024/04/01 08:54:41;;;;;;;0.10;0.10;;;;;;;12.58;65.53;98656.66;7362868;19;20046;-63
2024/04/01 08:57:07;;;;;;;0.10;0.10;;;;;;;12.59;65.60;98658.31;7357014;19;20462;-63
2024/04/01 08:59:34;;;;;;;0.10;0.10;;;;;;;12.61;65.18;98659.06;7361901;19;20002;-63
2024/04/01 09:02:01;;;;;;;0.10;0.10;;;;;;;12.01;65.65;98559.91;7361276;19;21124;-64
2024/04/01 09:04:27;;;;;;;;;;;;;;;12.69;64.19;98662.03;7361234;19;20802;-65
2024/04/01 09:06:52;;;;;;;0.10;0.10;;;;;;;12.66;65.08;98659.59;7356665;19;19919;-64
2024/04/01 09:09:18;;;;;;;0.10;0.10;;;;;;;12.67;65.20;98663.94;7363573;19;20007;-63
2024/04/01 09:11:44;;;;;;;0.10;0.10;;;;;;;12.54;65.14;98655.16;7368231;19;20466;-63
2024/04/01 09:14:09;;;;;;;0.10;0.10;;;;;;;12.65;65.51;98671.03;7360272;19;20006;-63
2024/04/01 09:16:35;;;;;;;0.10;0.10;;;;;;;12.50;65.53;98645.81;7358058;19;20015;-63
2024/04/01 09:19:06;;;;;;;0.10;0.10;;;;;;;12.62;65.49;98673.84;7365305;19;20351;-64
2024/04/01 09:21:32;;;;;;;0.10;0.10;;;;;;;12.61;65.53;98674.75;7364726;19;20007;-63
2024/04/01 09:23:58;;;;;;;0.17;0.17;;;;;;;12.60;65.46;98678.31;7364955;19;20006;-63
2024/04/01 09:26:32;;;;;;;0.10;0.10;;;;;;;12.59;65.72;98671.41;7362630;19;20003;-63
2024/04/01 09:28:59;;;;;;;0.10;0.10;;;;;;;12.58;66.00;98669.75;7358811;19;20459;-63
2024/04/01 09:31:25;;;;;;;0.10;0.10;;;;;;;12.37;66.13;98639.69;7359473;19;20006;-63
2024/04/01 09:33:51;;;;;;;0.10;0.10;;;;;;;12.45;66.06;98658.34;7361093;19;20387;-64
2024/04/01 09:36:17;;;;;;;0.10;0.10;;;;;;;12.52;66.19;98670.13;7363034;19;20014;-63
2024/04/01 09:38:42;;;;;;;0.10;0.10;;;;;;;12.56;66.07;98682.06;7359100;19;20057;-63
2024/04/01 09:41:08;;;;;;;0.10;0.10;;;;;;;12.54;66.38;98678.72;7364724;19;20006;-63
2024/04/01 09:43:33;;;;;;;0.10;0.10;;;;;;;12.58;66.67;98689.84;7360856;19;20018;-63
2024/04/01 09:46:00;;;;;;;0.10;0.10;;;;;;;12.59;66.72;98684.50;7363002;19;20002;-63
2024/04/01 09:48:27;;;;;;;0.10;0.10;;;;;;;12.62;66.43;98681.72;7357928;19;20535;-63
2024/04/01 09:50:54;;;;;;;0.17;0.17;;;;;;;12.59;66.36;98675.81;7347524;19;19995;-62
2024/04/01 09:53:20;;;;;;;0.10;0.10;;;;;;;12.67;66.72;98679.63;7361735;19;21173;-63
2024/04/01 09:56:01;;;;;;;0.10;0.10;;;;;;;12.78;66.16;98686.81;7361713;19;20082;-63
2024/04/01 09:58:44;;;;;;;0.10;0.10;;;;;;;12.82;66.32;98688.25;7358317;19;20030;-63
2024/04/01 10:01:29;;;;;;;0.10;0.10;;;;;;;12.76;65.50;98670.34;7365628;19;20549;-64
2024/04/01 10:04:32;;;;;;;0.10;0.10;;;;;;;12.91;65.65;98686.84;7376974;19;20025;-63
2024/04/01 10:07:06;;;;;;;0.10;0.10;;;;;;;12.88;66.39;98693.13;7374870;19;20648;-64
2024/04/01 10:10:08;;;;;;;0.10;0.10;;;;;;;12.92;65.50;98688.53;7375591;19;20870;-63
2024/04/01 10:12:55;;;;;;;0.10;0.10;;;;;;;12.90;65.92;98696.50;7371036;19;20017;-63
2024/04/01 10:15:33;;;;;;;0.10;0.10;;;;;;;12.92;65.79;98699.00;7373911;19;20010;-64
2024/04/01 10:18:07;;;;;;;0.10;0.10;;;;;;;12.90;65.72;98700.88;7375499;19;20738;-63
2024/04/01 10:20:44;;;;;;;0.10;0.10;;;;;;;12.90;66.06;98706.13;7377182;19;20007;-64
2024/04/01 10:23:31;;;;;;;0.10;0.10;;;;;;;12.89;65.71;98699.22;7354703;19;20009;-64
2024/04/01 10:26:27;;;;;;;0.10;0.10;;;;;;;12.88;65.75;98702.78;7365248;19;20023;-64
2024/04/01 10:29:14;;;;;;;0.10;0.10;;;;;;;12.86;65.60;98705.47;7378979;19;20014;-63
2024/04/01 10:32:14;;;;;;;0.10;0.10;;;;;;;12.84;65.16;98701.28;7374815;19;20363;-63
2024/04/01 10:35:17;;;;;;;0.10;0.10;;;;;;;12.80;65.30;98700.63;7376696;19;20474;-63
2024/04/01 10:37:51;;;;;;;0.15;0.15;;;;;;;12.78;65.92;98704.31;7378456;19;20025;-64
2024/04/01 10:40:47;;;;;;;0.10;0.10;;;;;;;12.73;65.83;98705.44;7372950;19;20041;-63
2024/04/01 10:43:40;;;;;;;0.10;0.10;;;;;;;12.71;66.23;98703.81;7378339;19;20006;-63
2024/04/01 10:46:05;;;;;;;0.10;0.10;;;;;;;12.65;66.96;98701.59;7375057;19;20036;-63
2024/04/01 10:48:48;;;;;;;0.10;0.10;;;;;;;12.62;66.16;98702.66;7373388;19;20062;-63
2024/04/01 10:51:36;;;;;;;0.10;0.10;;;;;;;12.65;65.96;98712.91;7375245;19;20017;-63
2024/04/01 10:54:07;;;;;;;0.10;0.10;;;;;;;12.64;66.85;98716.47;7376830;19;20003;-63
2024/04/01 10:57:06;;;;;;;0.13;0.13;;;;;;;12.64;66.50;98721.72;7374587;19;20478;-64
2024/04/01 10:59:55;;;;;;;0.10;0.10;;;;;;;12.62;66.42;98707.88;7375160;19;20044;-63
2024/04/01 11:02:32;;;;;;;0.10;0.10;;;;;;;12.62;66.51;98717.50;7376977;19;20122;-64
2024/04/01 11:05:39;;;;;;;0.10;0.10;;;;;;;12.61;66.29;98714.03;7376872;19;20010;-63
2024/04/01 11:08:24;;;;;;;0.00;0.00;;;;;;;12.58;66.94;98716.88;7372007;19;20498;-64
2024/04/01 11:11:14;;;;;;;0.10;0.10;;;;;;;12.60;67.02;98725.47;7373412;19;20006;-63
2024/04/01 11:13:40;;;;;;;0.10;0.10;;;;;;;12.58;67.46;98722.09;7368110;19;20355;-63
2024/04/01 11:16:07;;;;;;;0.10;0.10;;;;;;;12.58;67.45;98719.50;7371300;19;20002;-63
2024/04/01 11:18:45;;;;;;;;;;;;;;;12.63;65.73;98714.81;7364337;19;20009;-63
2024/04/01 11:21:27;;;;;;;0.10;0.10;;;;;;;12.61;66.62;98716.66;7366804;19;19934;-63
2024/04/01 11:24:02;;;;;;;0.10;0.10;;;;;;;12.52;67.20;98704.16;7367809;19;20023;-63
2024/04/01 11:26:37;;;;;;;0.10;0.10;;;;;;;12.59;67.08;98725.56;7366900;19;20021;-64
2024/04/01 11:29:49;;;;;;;0.10;0.10;;;;;;;12.62;66.51;98728.84;7367843;19;20013;-63
2024/04/01 11:32:22;;;;;;;0.10;0.10;;;;;;;12.60;67.19;98728.06;7367959;19;20024;-64
2024/04/01 11:35:12;;;;;;;0.10;0.10;;;;;;;12.59;66.64;98731.63;7366158;19;21009;-64
2024/04/01 11:37:50;;;;;;;0.10;0.10;;;;;;;12.60;66.64;98732.47;7367011;19;20040;-63
2024/04/01 11:40:25;;;;;;;0.10;0.10;;;;;;;12.58;67.26;98737.81;7364757;19;20010;-63